sensor_id;sensor_type;location;lat;lon;timestamp;P1;durP1;ratioP1;P2;durP2;ratioP2
15356;SDS011;7778;48.792;9.260;2022-09-09T00:00:06;3.17;;;1.00;;
15356;SDS011;7778;48.792;9.260;2022-09-09T00:03:02;4.70;;;1.13;;
15356;SDS011;7778;48.792;9.260;2022-09-09T00:05:59;2.10;;;1.65;;
15356;SDS011;7778;48.792;9.260;2022-09-09T00:09:00;4.65;;;1.98;;
15356;SDS011;7778;48.792;9.260;2022-09-09T00:11:54;4.25;;;2.08;;
15356;SDS011;7778;48.792;9.260;2022-09-09T00:14:48;6.57;;;1.70;;
15356;SDS011;7778;48.792;9.260;2022-09-09T00:17:42;4.45;;;1.45;;
15356;SDS011;7778;48.792;9.260;2022-09-09T00:20:34;4.30;;;1.77;;
15356;SDS011;7778;48.792;9.260;2022-09-09T00:23:30;3.72;;;1.55;;
15356;SDS011;7778;48.792;9.260;2022-09-09T00:26:21;4.47;;;1.70;;
15356;SDS011;7778;48.792;9.260;2022-09-09T00:29:21;9.23;;;2.22;;
15356;SDS011;7778;48.792;9.260;2022-09-09T00:32:14;4.00;;;1.35;;
15356;SDS011;7778;48.792;9.260;2022-09-09T00:35:04;2.58;;;1.30;;
15356;SDS011;7778;48.792;9.260;2022-09-09T00:38:03;2.80;;;1.50;;
15356;SDS011;7778;48.792;9.260;2022-09-09T00:41:00;3.05;;;1.45;;
15356;SDS011;7778;48.792;9.260;2022-09-09T00:43:56;3.25;;;1.27;;
15356;SDS011;7778;48.792;9.260;2022-09-09T00:46:55;3.15;;;1.40;;
15356;SDS011;7778;48.792;9.260;2022-09-09T00:49:56;2.17;;;1.35;;
15356;SDS011;7778;48.792;9.260;2022-09-09T00:52:50;1.35;;;1.10;;
15356;SDS011;7778;48.792;9.260;2022-09-09T00:55:48;3.30;;;0.85;;
15356;SDS011;7778;48.792;9.260;2022-09-09T00:58:42;3.10;;;1.25;;
15356;SDS011;7778;48.792;9.260;2022-09-09T01:01:35;2.38;;;1.35;;
15356;SDS011;7778;48.792;9.260;2022-09-09T01:04:26;3.33;;;1.13;;
15356;SDS011;7778;48.792;9.260;2022-09-09T01:07:20;4.25;;;1.45;;
15356;SDS011;7778;48.792;9.260;2022-09-09T01:10:07;3.22;;;1.20;;
15356;SDS011;7778;48.792;9.260;2022-09-09T01:13:02;2.28;;;1.15;;
15356;SDS011;7778;48.792;9.260;2022-09-09T01:15:57;2.33;;;0.77;;
15356;SDS011;7778;48.792;9.260;2022-09-09T01:18:46;1.90;;;0.75;;
15356;SDS011;7778;48.792;9.260;2022-09-09T01:21:40;1.60;;;0.82;;
15356;SDS011;7778;48.792;9.260;2022-09-09T01:24:35;1.50;;;0.85;;
15356;SDS011;7778;48.792;9.260;2022-09-09T01:27:27;2.20;;;1.00;;
15356;SDS011;7778;48.792;9.260;2022-09-09T01:30:14;1.10;;;0.88;;
15356;SDS011;7778;48.792;9.260;2022-09-09T01:33:03;4.93;;;0.90;;
15356;SDS011;7778;48.792;9.260;2022-09-09T01:35:49;1.65;;;0.75;;
15356;SDS011;7778;48.792;9.260;2022-09-09T01:38:39;2.35;;;0.70;;
15356;SDS011;7778;48.792;9.260;2022-09-09T01:41:25;1.67;;;0.77;;
15356;SDS011;7778;48.792;9.260;2022-09-09T01:44:13;1.27;;;0.82;;
15356;SDS011;7778;48.792;9.260;2022-09-09T01:46:58;1.10;;;0.68;;
15356;SDS011;7778;48.792;9.260;2022-09-09T01:49:44;2.28;;;1.15;;
15356;SDS011;7778;48.792;9.260;2022-09-09T01:52:30;1.08;;;0.85;;
15356;SDS011;7778;48.792;9.260;2022-09-09T01:55:28;1.42;;;0.47;;
15356;SDS011;7778;48.792;9.260;2022-09-09T01:58:25;3.17;;;0.93;;
15356;SDS011;7778;48.792;9.260;2022-09-09T02:01:23;1.92;;;1.00;;
15356;SDS011;7778;48.792;9.260;2022-09-09T02:04:24;5.00;;;1.20;;
15356;SDS011;7778;48.792;9.260;2022-09-09T02:07:27;0.90;;;0.88;;
15356;SDS011;7778;48.792;9.260;2022-09-09T02:10:24;1.98;;;0.95;;
15356;SDS011;7778;48.792;9.260;2022-09-09T02:13:17;2.45;;;1.00;;
15356;SDS011;7778;48.792;9.260;2022-09-09T02:16:07;1.90;;;0.75;;
15356;SDS011;7778;48.792;9.260;2022-09-09T02:18:59;2.17;;;0.88;;
15356;SDS011;7778;48.792;9.260;2022-09-09T02:21:48;1.90;;;0.73;;
15356;SDS011;7778;48.792;9.260;2022-09-09T02:24:36;1.30;;;0.80;;
15356;SDS011;7778;48.792;9.260;2022-09-09T02:27:24;1.00;;;0.52;;
15356;SDS011;7778;48.792;9.260;2022-09-09T02:30:10;1.58;;;0.50;;
15356;SDS011;7778;48.792;9.260;2022-09-09T02:32:58;1.70;;;0.68;;
15356;SDS011;7778;48.792;9.260;2022-09-09T02:35:47;3.60;;;1.08;;
15356;SDS011;7778;48.792;9.260;2022-09-09T02:38:35;1.58;;;0.90;;
15356;SDS011;7778;48.792;9.260;2022-09-09T02:41:26;2.72;;;1.30;;
15356;SDS011;7778;48.792;9.260;2022-09-09T02:44:17;1.63;;;1.27;;
15356;SDS011;7778;48.792;9.260;2022-09-09T02:47:09;0.95;;;0.70;;
15356;SDS011;7778;48.792;9.260;2022-09-09T02:50:12;0.63;;;0.63;;
15356;SDS011;7778;48.792;9.260;2022-09-09T02:53:05;1.42;;;1.10;;
15356;SDS011;7778;48.792;9.260;2022-09-09T02:56:00;2.28;;;0.95;;
15356;SDS011;7778;48.792;9.260;2022-09-09T02:58:51;5.78;;;1.00;;
15356;SDS011;7778;48.792;9.260;2022-09-09T03:01:38;2.10;;;0.90;;
15356;SDS011;7778;48.792;9.260;2022-09-09T03:04:23;0.60;;;0.45;;
15356;SDS011;7778;48.792;9.260;2022-09-09T03:07:09;1.02;;;0.50;;
15356;SDS011;7778;48.792;9.260;2022-09-09T03:09:57;1.90;;;0.73;;
15356;SDS011;7778;48.792;9.260;2022-09-09T03:12:43;2.08;;;0.80;;
15356;SDS011;7778;48.792;9.260;2022-09-09T03:15:29;3.75;;;0.95;;
15356;SDS011;7778;48.792;9.260;2022-09-09T03:18:15;3.63;;;0.75;;
15356;SDS011;7778;48.792;9.260;2022-09-09T03:21:00;1.15;;;0.68;;
15356;SDS011;7778;48.792;9.260;2022-09-09T03:23:46;0.73;;;0.70;;
15356;SDS011;7778;48.792;9.260;2022-09-09T03:26:33;1.88;;;1.05;;
15356;SDS011;7778;48.792;9.260;2022-09-09T03:29:21;1.95;;;0.80;;
15356;SDS011;7778;48.792;9.260;2022-09-09T03:32:06;2.63;;;1.08;;
15356;SDS011;7778;48.792;9.260;2022-09-09T03:34:53;1.58;;;0.60;;
15356;SDS011;7778;48.792;9.260;2022-09-09T03:37:39;0.82;;;0.82;;
15356;SDS011;7778;48.792;9.260;2022-09-09T03:40:25;4.47;;;1.02;;
15356;SDS011;7778;48.792;9.260;2022-09-09T03:43:12;0.63;;;0.63;;
15356;SDS011;7778;48.792;9.260;2022-09-09T03:46:00;2.25;;;0.88;;
15356;SDS011;7778;48.792;9.260;2022-09-09T03:48:46;2.03;;;1.00;;
15356;SDS011;7778;48.792;9.260;2022-09-09T03:51:31;1.95;;;0.98;;
15356;SDS011;7778;48.792;9.260;2022-09-09T03:54:20;1.63;;;0.85;;
15356;SDS011;7778;48.792;9.260;2022-09-09T03:57:06;2.95;;;1.55;;
15356;SDS011;7778;48.792;9.260;2022-09-09T03:59:53;1.52;;;1.08;;
15356;SDS011;7778;48.792;9.260;2022-09-09T04:02:38;1.48;;;0.75;;
15356;SDS011;7778;48.792;9.260;2022-09-09T04:05:24;1.17;;;0.82;;
15356;SDS011;7778;48.792;9.260;2022-09-09T04:08:10;1.05;;;0.77;;
15356;SDS011;7778;48.792;9.260;2022-09-09T04:10:56;2.67;;;1.38;;
15356;SDS011;7778;48.792;9.260;2022-09-09T04:13:42;1.75;;;0.95;;
15356;SDS011;7778;48.792;9.260;2022-09-09T04:16:29;2.60;;;0.82;;
15356;SDS011;7778;48.792;9.260;2022-09-09T04:19:15;1.35;;;1.15;;
15356;SDS011;7778;48.792;9.260;2022-09-09T04:22:00;3.22;;;1.48;;
15356;SDS011;7778;48.792;9.260;2022-09-09T04:24:46;5.30;;;1.13;;
15356;SDS011;7778;48.792;9.260;2022-09-09T04:27:32;5.10;;;1.20;;
15356;SDS011;7778;48.792;9.260;2022-09-09T04:30:18;2.63;;;1.00;;
15356;SDS011;7778;48.792;9.260;2022-09-09T04:33:05;1.65;;;1.10;;
15356;SDS011;7778;48.792;9.260;2022-09-09T04:35:51;3.38;;;0.93;;
15356;SDS011;7778;48.792;9.260;2022-09-09T04:38:37;4.72;;;1.23;;
15356;SDS011;7778;48.792;9.260;2022-09-09T04:41:22;3.40;;;1.17;;
15356;SDS011;7778;48.792;9.260;2022-09-09T04:44:08;1.33;;;0.75;;
15356;SDS011;7778;48.792;9.260;2022-09-09T04:46:54;23.60;;;10.32;;
15356;SDS011;7778;48.792;9.260;2022-09-09T04:49:41;29.27;;;12.80;;
15356;SDS011;7778;48.792;9.260;2022-09-09T04:52:26;6.30;;;3.10;;
15356;SDS011;7778;48.792;9.260;2022-09-09T04:55:13;1.30;;;1.17;;
15356;SDS011;7778;48.792;9.260;2022-09-09T04:58:02;2.45;;;1.20;;
15356;SDS011;7778;48.792;9.260;2022-09-09T05:00:50;2.28;;;1.20;;
15356;SDS011;7778;48.792;9.260;2022-09-09T05:03:36;1.60;;;1.10;;
15356;SDS011;7778;48.792;9.260;2022-09-09T05:06:23;1.20;;;0.80;;
15356;SDS011;7778;48.792;9.260;2022-09-09T05:09:09;5.03;;;1.23;;
15356;SDS011;7778;48.792;9.260;2022-09-09T05:11:55;2.63;;;0.95;;
15356;SDS011;7778;48.792;9.260;2022-09-09T05:14:41;1.55;;;0.98;;
15356;SDS011;7778;48.792;9.260;2022-09-09T05:17:27;1.40;;;0.98;;
15356;SDS011;7778;48.792;9.260;2022-09-09T05:20:13;2.47;;;1.38;;
15356;SDS011;7778;48.792;9.260;2022-09-09T05:23:00;5.38;;;1.23;;
15356;SDS011;7778;48.792;9.260;2022-09-09T05:25:54;2.35;;;0.95;;
15356;SDS011;7778;48.792;9.260;2022-09-09T05:28:41;2.58;;;1.23;;
15356;SDS011;7778;48.792;9.260;2022-09-09T05:31:29;2.03;;;1.08;;
15356;SDS011;7778;48.792;9.260;2022-09-09T05:34:16;1.60;;;0.93;;
15356;SDS011;7778;48.792;9.260;2022-09-09T05:37:01;5.32;;;1.08;;
15356;SDS011;7778;48.792;9.260;2022-09-09T05:39:49;1.88;;;1.35;;
15356;SDS011;7778;48.792;9.260;2022-09-09T05:42:35;2.17;;;0.93;;
15356;SDS011;7778;48.792;9.260;2022-09-09T05:45:20;1.48;;;1.10;;
15356;SDS011;7778;48.792;9.260;2022-09-09T05:48:06;3.13;;;1.33;;
15356;SDS011;7778;48.792;9.260;2022-09-09T05:50:52;2.15;;;1.10;;
15356;SDS011;7778;48.792;9.260;2022-09-09T05:53:39;4.43;;;1.48;;
15356;SDS011;7778;48.792;9.260;2022-09-09T05:56:26;4.25;;;0.80;;
15356;SDS011;7778;48.792;9.260;2022-09-09T05:59:13;2.53;;;1.20;;
15356;SDS011;7778;48.792;9.260;2022-09-09T06:01:59;7.72;;;1.50;;
15356;SDS011;7778;48.792;9.260;2022-09-09T06:04:45;2.92;;;0.85;;
15356;SDS011;7778;48.792;9.260;2022-09-09T06:07:31;1.10;;;0.85;;
15356;SDS011;7778;48.792;9.260;2022-09-09T06:10:17;3.15;;;1.45;;
15356;SDS011;7778;48.792;9.260;2022-09-09T06:13:04;2.22;;;1.00;;
15356;SDS011;7778;48.792;9.260;2022-09-09T06:15:49;2.67;;;1.00;;
15356;SDS011;7778;48.792;9.260;2022-09-09T06:18:35;7.85;;;1.27;;
15356;SDS011;7778;48.792;9.260;2022-09-09T06:21:22;0.75;;;0.75;;
15356;SDS011;7778;48.792;9.260;2022-09-09T06:24:10;1.48;;;0.82;;
15356;SDS011;7778;48.792;9.260;2022-09-09T06:26:57;2.08;;;0.85;;
15356;SDS011;7778;48.792;9.260;2022-09-09T06:29:44;3.80;;;1.40;;
15356;SDS011;7778;48.792;9.260;2022-09-09T06:32:29;4.65;;;1.27;;
15356;SDS011;7778;48.792;9.260;2022-09-09T06:35:18;3.20;;;1.23;;
15356;SDS011;7778;48.792;9.260;2022-09-09T06:38:04;4.53;;;1.27;;
15356;SDS011;7778;48.792;9.260;2022-09-09T06:40:53;4.93;;;0.90;;
15356;SDS011;7778;48.792;9.260;2022-09-09T06:43:41;3.00;;;1.20;;
15356;SDS011;7778;48.792;9.260;2022-09-09T06:46:29;2.42;;;1.02;;
15356;SDS011;7778;48.792;9.260;2022-09-09T06:49:16;3.92;;;0.85;;
15356;SDS011;7778;48.792;9.260;2022-09-09T06:52:02;4.28;;;1.20;;
15356;SDS011;7778;48.792;9.260;2022-09-09T06:54:48;5.22;;;1.13;;
15356;SDS011;7778;48.792;9.260;2022-09-09T06:57:33;2.10;;;1.17;;
15356;SDS011;7778;48.792;9.260;2022-09-09T07:00:19;2.55;;;0.88;;
15356;SDS011;7778;48.792;9.260;2022-09-09T07:03:06;3.58;;;1.30;;
15356;SDS011;7778;48.792;9.260;2022-09-09T07:05:55;1.70;;;1.17;;
15356;SDS011;7778;48.792;9.260;2022-09-09T07:08:41;5.05;;;1.20;;
15356;SDS011;7778;48.792;9.260;2022-09-09T07:11:36;5.65;;;1.23;;
15356;SDS011;7778;48.792;9.260;2022-09-09T07:14:25;1.85;;;0.95;;
15356;SDS011;7778;48.792;9.260;2022-09-09T07:17:11;2.58;;;1.02;;
15356;SDS011;7778;48.792;9.260;2022-09-09T07:19:58;2.45;;;0.90;;
15356;SDS011;7778;48.792;9.260;2022-09-09T07:22:43;4.65;;;1.20;;
15356;SDS011;7778;48.792;9.260;2022-09-09T07:25:29;5.38;;;1.15;;
15356;SDS011;7778;48.792;9.260;2022-09-09T07:28:15;2.97;;;1.25;;
15356;SDS011;7778;48.792;9.260;2022-09-09T07:31:01;2.47;;;1.08;;
15356;SDS011;7778;48.792;9.260;2022-09-09T07:33:48;1.88;;;1.10;;
15356;SDS011;7778;48.792;9.260;2022-09-09T07:36:36;3.50;;;1.40;;
15356;SDS011;7778;48.792;9.260;2022-09-09T07:39:24;1.30;;;0.93;;
15356;SDS011;7778;48.792;9.260;2022-09-09T07:42:09;2.90;;;1.13;;
15356;SDS011;7778;48.792;9.260;2022-09-09T07:44:56;3.60;;;0.90;;
15356;SDS011;7778;48.792;9.260;2022-09-09T07:47:42;2.08;;;0.68;;
15356;SDS011;7778;48.792;9.260;2022-09-09T07:50:29;1.63;;;1.20;;
15356;SDS011;7778;48.792;9.260;2022-09-09T07:53:16;1.42;;;1.10;;
15356;SDS011;7778;48.792;9.260;2022-09-09T07:56:04;4.45;;;1.40;;
15356;SDS011;7778;48.792;9.260;2022-09-09T07:58:53;2.40;;;1.60;;
15356;SDS011;7778;48.792;9.260;2022-09-09T08:01:41;1.27;;;1.10;;
15356;SDS011;7778;48.792;9.260;2022-09-09T08:04:28;2.15;;;1.05;;
15356;SDS011;7778;48.792;9.260;2022-09-09T08:07:14;1.92;;;0.88;;
15356;SDS011;7778;48.792;9.260;2022-09-09T08:10:02;5.65;;;1.30;;
15356;SDS011;7778;48.792;9.260;2022-09-09T08:12:48;3.97;;;0.88;;
15356;SDS011;7778;48.792;9.260;2022-09-09T08:15:34;2.45;;;0.82;;
15356;SDS011;7778;48.792;9.260;2022-09-09T08:18:19;2.50;;;0.80;;
15356;SDS011;7778;48.792;9.260;2022-09-09T08:21:06;2.83;;;0.95;;
15356;SDS011;7778;48.792;9.260;2022-09-09T08:23:55;0.90;;;0.77;;
15356;SDS011;7778;48.792;9.260;2022-09-09T08:26:45;1.95;;;0.93;;
15356;SDS011;7778;48.792;9.260;2022-09-09T08:29:32;1.55;;;0.77;;
15356;SDS011;7778;48.792;9.260;2022-09-09T08:32:18;3.53;;;1.00;;
15356;SDS011;7778;48.792;9.260;2022-09-09T08:35:04;1.05;;;0.70;;
15356;SDS011;7778;48.792;9.260;2022-09-09T08:37:53;1.65;;;1.08;;
15356;SDS011;7778;48.792;9.260;2022-09-09T08:40:42;1.10;;;0.73;;
15356;SDS011;7778;48.792;9.260;2022-09-09T08:43:34;3.15;;;1.33;;
15356;SDS011;7778;48.792;9.260;2022-09-09T08:46:21;1.52;;;0.93;;
15356;SDS011;7778;48.792;9.260;2022-09-09T08:49:22;2.50;;;0.98;;
15356;SDS011;7778;48.792;9.260;2022-09-09T08:52:28;1.88;;;0.80;;
15356;SDS011;7778;48.792;9.260;2022-09-09T08:55:20;2.92;;;0.82;;
15356;SDS011;7778;48.792;9.260;2022-09-09T08:58:12;2.40;;;0.85;;
15356;SDS011;7778;48.792;9.260;2022-09-09T09:01:09;2.83;;;0.80;;
15356;SDS011;7778;48.792;9.260;2022-09-09T09:04:19;1.83;;;0.57;;
15356;SDS011;7778;48.792;9.260;2022-09-09T09:07:21;2.05;;;0.68;;
15356;SDS011;7778;48.792;9.260;2022-09-09T09:10:24;4.05;;;0.90;;
15356;SDS011;7778;48.792;9.260;2022-09-09T09:13:26;0.63;;;0.60;;
15356;SDS011;7778;48.792;9.260;2022-09-09T09:16:23;2.40;;;0.95;;
15356;SDS011;7778;48.792;9.260;2022-09-09T09:19:16;4.53;;;0.77;;
15356;SDS011;7778;48.792;9.260;2022-09-09T09:22:06;2.55;;;0.73;;
15356;SDS011;7778;48.792;9.260;2022-09-09T09:25:05;5.20;;;0.75;;
15356;SDS011;7778;48.792;9.260;2022-09-09T09:27:58;5.85;;;1.10;;
15356;SDS011;7778;48.792;9.260;2022-09-09T09:30:50;3.55;;;1.20;;
15356;SDS011;7778;48.792;9.260;2022-09-09T09:33:45;2.35;;;1.00;;
15356;SDS011;7778;48.792;9.260;2022-09-09T09:36:34;3.15;;;0.70;;
15356;SDS011;7778;48.792;9.260;2022-09-09T09:39:25;1.65;;;0.75;;
15356;SDS011;7778;48.792;9.260;2022-09-09T09:42:14;1.65;;;0.45;;
15356;SDS011;7778;48.792;9.260;2022-09-09T09:45:07;1.55;;;0.52;;
15356;SDS011;7778;48.792;9.260;2022-09-09T09:48:03;2.33;;;1.10;;
15356;SDS011;7778;48.792;9.260;2022-09-09T09:50:54;1.08;;;0.75;;
15356;SDS011;7778;48.792;9.260;2022-09-09T09:53:42;1.85;;;0.30;;
15356;SDS011;7778;48.792;9.260;2022-09-09T09:56:28;2.58;;;0.93;;
15356;SDS011;7778;48.792;9.260;2022-09-09T09:59:21;2.50;;;0.77;;
15356;SDS011;7778;48.792;9.260;2022-09-09T10:02:18;0.93;;;0.43;;
15356;SDS011;7778;48.792;9.260;2022-09-09T10:05:13;1.90;;;0.82;;
15356;SDS011;7778;48.792;9.260;2022-09-09T10:08:03;2.30;;;0.80;;
15356;SDS011;7778;48.792;9.260;2022-09-09T10:10:58;1.17;;;0.65;;
15356;SDS011;7778;48.792;9.260;2022-09-09T10:13:56;1.02;;;0.50;;
15356;SDS011;7778;48.792;9.260;2022-09-09T10:17:05;1.30;;;0.57;;
15356;SDS011;7778;48.792;9.260;2022-09-09T10:20:10;1.90;;;0.80;;
15356;SDS011;7778;48.792;9.260;2022-09-09T10:23:09;2.63;;;0.50;;
15356;SDS011;7778;48.792;9.260;2022-09-09T10:26:16;3.30;;;0.40;;
15356;SDS011;7778;48.792;9.260;2022-09-09T10:32:41;4.85;;;0.60;;
15356;SDS011;7778;48.792;9.260;2022-09-09T10:35:33;1.27;;;0.35;;
15356;SDS011;7778;48.792;9.260;2022-09-09T10:38:24;2.53;;;0.90;;
15356;SDS011;7778;48.792;9.260;2022-09-09T10:41:17;1.27;;;0.70;;
15356;SDS011;7778;48.792;9.260;2022-09-09T10:44:18;2.17;;;1.00;;
15356;SDS011;7778;48.792;9.260;2022-09-09T10:47:21;1.85;;;0.80;;
15356;SDS011;7778;48.792;9.260;2022-09-09T10:50:38;1.23;;;0.60;;
15356;SDS011;7778;48.792;9.260;2022-09-09T10:53:41;0.82;;;0.80;;
15356;SDS011;7778;48.792;9.260;2022-09-09T10:56:37;0.40;;;0.40;;
15356;SDS011;7778;48.792;9.260;2022-09-09T10:59:27;4.65;;;1.35;;
15356;SDS011;7778;48.792;9.260;2022-09-09T11:02:21;2.10;;;0.60;;
15356;SDS011;7778;48.792;9.260;2022-09-09T11:05:14;2.08;;;0.43;;
15356;SDS011;7778;48.792;9.260;2022-09-09T11:08:05;4.68;;;1.17;;
15356;SDS011;7778;48.792;9.260;2022-09-09T11:11:00;1.23;;;0.65;;
15356;SDS011;7778;48.792;9.260;2022-09-09T11:13:49;1.35;;;0.70;;
15356;SDS011;7778;48.792;9.260;2022-09-09T11:16:42;3.67;;;1.02;;
15356;SDS011;7778;48.792;9.260;2022-09-09T11:19:34;1.65;;;0.68;;
15356;SDS011;7778;48.792;9.260;2022-09-09T11:22:25;4.95;;;0.85;;
15356;SDS011;7778;48.792;9.260;2022-09-09T11:25:17;1.83;;;0.65;;
15356;SDS011;7778;48.792;9.260;2022-09-09T11:28:14;1.85;;;0.60;;
15356;SDS011;7778;48.792;9.260;2022-09-09T11:31:21;1.10;;;0.63;;
15356;SDS011;7778;48.792;9.260;2022-09-09T11:34:34;1.90;;;0.68;;
15356;SDS011;7778;48.792;9.260;2022-09-09T11:37:43;1.65;;;0.70;;
15356;SDS011;7778;48.792;9.260;2022-09-09T11:40:58;3.65;;;0.65;;
15356;SDS011;7778;48.792;9.260;2022-09-09T11:43:49;3.30;;;0.60;;
15356;SDS011;7778;48.792;9.260;2022-09-09T11:46:37;0.68;;;0.32;;
15356;SDS011;7778;48.792;9.260;2022-09-09T11:49:26;0.98;;;0.55;;
15356;SDS011;7778;48.792;9.260;2022-09-09T11:52:20;1.25;;;0.52;;
15356;SDS011;7778;48.792;9.260;2022-09-09T11:55:10;1.70;;;0.50;;
15356;SDS011;7778;48.792;9.260;2022-09-09T11:58:15;2.28;;;0.45;;
15356;SDS011;7778;48.792;9.260;2022-09-09T12:01:13;1.40;;;0.50;;
15356;SDS011;7778;48.792;9.260;2022-09-09T12:04:12;1.02;;;0.40;;
15356;SDS011;7778;48.792;9.260;2022-09-09T12:07:22;0.70;;;0.50;;
15356;SDS011;7778;48.792;9.260;2022-09-09T12:10:20;0.60;;;0.60;;
15356;SDS011;7778;48.792;9.260;2022-09-09T12:13:15;1.10;;;0.50;;
15356;SDS011;7778;48.792;9.260;2022-09-09T12:16:03;0.60;;;0.30;;
15356;SDS011;7778;48.792;9.260;2022-09-09T12:18:51;1.23;;;0.45;;
15356;SDS011;7778;48.792;9.260;2022-09-09T12:21:51;0.25;;;0.13;;
15356;SDS011;7778;48.792;9.260;2022-09-09T12:24:46;1.63;;;0.28;;
15356;SDS011;7778;48.792;9.260;2022-09-09T12:27:40;1.88;;;0.20;;
15356;SDS011;7778;48.792;9.260;2022-09-09T12:30:46;1.45;;;0.20;;
15356;SDS011;7778;48.792;9.260;2022-09-09T12:33:40;0.25;;;0.25;;
15356;SDS011;7778;48.792;9.260;2022-09-09T12:36:30;1.20;;;0.30;;
15356;SDS011;7778;48.792;9.260;2022-09-09T12:39:19;1.92;;;0.63;;
15356;SDS011;7778;48.792;9.260;2022-09-09T12:42:15;0.90;;;0.35;;
15356;SDS011;7778;48.792;9.260;2022-09-09T12:45:03;0.63;;;0.30;;
15356;SDS011;7778;48.792;9.260;2022-09-09T12:48:03;0.98;;;0.38;;
15356;SDS011;7778;48.792;9.260;2022-09-09T12:50:51;0.55;;;0.30;;
15356;SDS011;7778;48.792;9.260;2022-09-09T12:53:41;1.38;;;0.40;;
15356;SDS011;7778;48.792;9.260;2022-09-09T12:56:27;1.63;;;0.47;;
15356;SDS011;7778;48.792;9.260;2022-09-09T12:59:21;0.30;;;0.13;;
15356;SDS011;7778;48.792;9.260;2022-09-09T13:02:11;2.28;;;0.50;;
15356;SDS011;7778;48.792;9.260;2022-09-09T13:05:13;1.77;;;0.32;;
15356;SDS011;7778;48.792;9.260;2022-09-09T13:08:02;0.77;;;0.30;;
15356;SDS011;7778;48.792;9.260;2022-09-09T13:10:53;2.22;;;0.30;;
15356;SDS011;7778;48.792;9.260;2022-09-09T13:13:42;3.72;;;0.50;;
15356;SDS011;7778;48.792;9.260;2022-09-09T13:16:35;0.70;;;0.43;;
15356;SDS011;7778;48.792;9.260;2022-09-09T13:19:22;0.70;;;0.25;;
15356;SDS011;7778;48.792;9.260;2022-09-09T13:22:11;1.40;;;0.40;;
15356;SDS011;7778;48.792;9.260;2022-09-09T13:24:58;1.55;;;0.95;;
15356;SDS011;7778;48.792;9.260;2022-09-09T13:27:59;2.50;;;0.73;;
15356;SDS011;7778;48.792;9.260;2022-09-09T13:30:54;1.30;;;0.38;;
15356;SDS011;7778;48.792;9.260;2022-09-09T13:33:43;0.63;;;0.32;;
15356;SDS011;7778;48.792;9.260;2022-09-09T13:36:30;2.50;;;0.30;;
15356;SDS011;7778;48.792;9.260;2022-09-09T13:39:17;0.17;;;0.15;;
15356;SDS011;7778;48.792;9.260;2022-09-09T13:42:04;0.68;;;0.28;;
15356;SDS011;7778;48.792;9.260;2022-09-09T13:44:52;2.78;;;0.63;;
15356;SDS011;7778;48.792;9.260;2022-09-09T13:47:39;1.45;;;0.45;;
15356;SDS011;7778;48.792;9.260;2022-09-09T13:50:27;1.70;;;0.47;;
15356;SDS011;7778;48.792;9.260;2022-09-09T13:53:13;0.40;;;0.30;;
15356;SDS011;7778;48.792;9.260;2022-09-09T13:56:00;2.85;;;0.73;;
15356;SDS011;7778;48.792;9.260;2022-09-09T13:58:46;1.30;;;0.50;;
15356;SDS011;7778;48.792;9.260;2022-09-09T14:01:33;3.35;;;0.57;;
15356;SDS011;7778;48.792;9.260;2022-09-09T14:04:21;1.08;;;0.45;;
15356;SDS011;7778;48.792;9.260;2022-09-09T14:07:08;1.52;;;0.50;;
15356;SDS011;7778;48.792;9.260;2022-09-09T14:09:56;1.85;;;0.73;;
15356;SDS011;7778;48.792;9.260;2022-09-09T14:12:43;4.03;;;0.40;;
15356;SDS011;7778;48.792;9.260;2022-09-09T14:15:30;2.05;;;0.75;;
15356;SDS011;7778;48.792;9.260;2022-09-09T14:18:17;0.85;;;0.30;;
15356;SDS011;7778;48.792;9.260;2022-09-09T14:21:03;0.95;;;0.50;;
15356;SDS011;7778;48.792;9.260;2022-09-09T14:23:48;1.02;;;0.30;;
15356;SDS011;7778;48.792;9.260;2022-09-09T14:26:34;5.10;;;1.05;;
15356;SDS011;7778;48.792;9.260;2022-09-09T14:29:20;0.98;;;0.43;;
15356;SDS011;7778;48.792;9.260;2022-09-09T14:32:09;1.08;;;0.38;;
15356;SDS011;7778;48.792;9.260;2022-09-09T14:34:56;0.77;;;0.47;;
15356;SDS011;7778;48.792;9.260;2022-09-09T14:37:42;1.02;;;0.35;;
15356;SDS011;7778;48.792;9.260;2022-09-09T14:40:28;1.02;;;0.60;;
15356;SDS011;7778;48.792;9.260;2022-09-09T14:43:14;0.30;;;0.30;;
15356;SDS011;7778;48.792;9.260;2022-09-09T14:46:04;3.00;;;0.98;;
15356;SDS011;7778;48.792;9.260;2022-09-09T14:48:50;1.02;;;0.20;;
15356;SDS011;7778;48.792;9.260;2022-09-09T14:51:37;0.63;;;0.15;;
15356;SDS011;7778;48.792;9.260;2022-09-09T14:54:22;1.60;;;0.22;;
15356;SDS011;7778;48.792;9.260;2022-09-09T14:57:08;2.13;;;0.40;;
15356;SDS011;7778;48.792;9.260;2022-09-09T14:59:53;0.93;;;0.32;;
15356;SDS011;7778;48.792;9.260;2022-09-09T15:02:40;1.27;;;0.50;;
15356;SDS011;7778;48.792;9.260;2022-09-09T15:05:26;1.75;;;0.28;;
15356;SDS011;7778;48.792;9.260;2022-09-09T15:08:12;2.20;;;0.30;;
15356;SDS011;7778;48.792;9.260;2022-09-09T15:11:01;0.75;;;0.43;;
15356;SDS011;7778;48.792;9.260;2022-09-09T15:13:50;0.82;;;0.32;;
15356;SDS011;7778;48.792;9.260;2022-09-09T15:16:37;0.50;;;0.50;;
15356;SDS011;7778;48.792;9.260;2022-09-09T15:19:24;0.13;;;0.13;;
15356;SDS011;7778;48.792;9.260;2022-09-09T15:22:10;1.38;;;0.47;;
15356;SDS011;7778;48.792;9.260;2022-09-09T15:24:56;0.32;;;0.32;;
15356;SDS011;7778;48.792;9.260;2022-09-09T15:27:42;1.00;;;0.30;;
15356;SDS011;7778;48.792;9.260;2022-09-09T15:30:28;1.13;;;0.30;;
15356;SDS011;7778;48.792;9.260;2022-09-09T15:33:14;0.60;;;0.30;;
15356;SDS011;7778;48.792;9.260;2022-09-09T15:36:00;0.70;;;0.20;;
15356;SDS011;7778;48.792;9.260;2022-09-09T15:38:56;2.13;;;0.55;;
15356;SDS011;7778;48.792;9.260;2022-09-09T15:41:44;1.58;;;0.68;;
15356;SDS011;7778;48.792;9.260;2022-09-09T15:44:37;0.82;;;0.40;;
15356;SDS011;7778;48.792;9.260;2022-09-09T15:47:26;1.67;;;0.40;;
15356;SDS011;7778;48.792;9.260;2022-09-09T15:50:11;1.45;;;0.50;;
15356;SDS011;7778;48.792;9.260;2022-09-09T15:52:57;1.20;;;0.32;;
15356;SDS011;7778;48.792;9.260;2022-09-09T15:55:43;3.63;;;0.30;;
15356;SDS011;7778;48.792;9.260;2022-09-09T15:58:30;0.90;;;0.47;;
15356;SDS011;7778;48.792;9.260;2022-09-09T16:01:16;0.60;;;0.38;;
15356;SDS011;7778;48.792;9.260;2022-09-09T16:04:03;1.45;;;0.63;;
15356;SDS011;7778;48.792;9.260;2022-09-09T16:06:49;1.83;;;0.88;;
15356;SDS011;7778;48.792;9.260;2022-09-09T16:09:35;1.15;;;0.55;;
15356;SDS011;7778;48.792;9.260;2022-09-09T16:12:21;3.22;;;0.52;;
15356;SDS011;7778;48.792;9.260;2022-09-09T16:15:08;2.30;;;0.90;;
15356;SDS011;7778;48.792;9.260;2022-09-09T16:17:54;2.30;;;0.68;;
15356;SDS011;7778;48.792;9.260;2022-09-09T16:20:40;1.25;;;0.43;;
15356;SDS011;7778;48.792;9.260;2022-09-09T16:23:25;1.55;;;0.60;;
15356;SDS011;7778;48.792;9.260;2022-09-09T16:26:11;1.17;;;0.40;;
15356;SDS011;7778;48.792;9.260;2022-09-09T16:28:59;1.45;;;0.85;;
15356;SDS011;7778;48.792;9.260;2022-09-09T16:31:47;1.13;;;0.28;;
15356;SDS011;7778;48.792;9.260;2022-09-09T16:34:35;2.10;;;1.08;;
15356;SDS011;7778;48.792;9.260;2022-09-09T16:37:21;2.38;;;0.52;;
15356;SDS011;7778;48.792;9.260;2022-09-09T16:40:07;2.35;;;0.98;;
15356;SDS011;7778;48.792;9.260;2022-09-09T16:42:53;1.35;;;0.50;;
15356;SDS011;7778;48.792;9.260;2022-09-09T16:45:43;4.65;;;0.82;;
15356;SDS011;7778;48.792;9.260;2022-09-09T16:48:31;0.50;;;0.13;;
15356;SDS011;7778;48.792;9.260;2022-09-09T16:51:19;4.55;;;0.65;;
15356;SDS011;7778;48.792;9.260;2022-09-09T16:54:08;1.17;;;0.43;;
15356;SDS011;7778;48.792;9.260;2022-09-09T16:56:55;2.83;;;0.47;;
15356;SDS011;7778;48.792;9.260;2022-09-09T16:59:42;0.38;;;0.20;;
15356;SDS011;7778;48.792;9.260;2022-09-09T17:02:27;0.82;;;0.30;;
15356;SDS011;7778;48.792;9.260;2022-09-09T17:05:14;0.43;;;0.15;;
15356;SDS011;7778;48.792;9.260;2022-09-09T17:08:01;0.65;;;0.35;;
15356;SDS011;7778;48.792;9.260;2022-09-09T17:10:49;0.45;;;0.20;;
15356;SDS011;7778;48.792;9.260;2022-09-09T17:13:34;2.63;;;0.17;;
15356;SDS011;7778;48.792;9.260;2022-09-09T17:16:21;1.55;;;0.32;;
15356;SDS011;7778;48.792;9.260;2022-09-09T17:19:10;0.00;;;0.00;;
15356;SDS011;7778;48.792;9.260;2022-09-09T17:21:59;0.10;;;0.10;;